Time;durP1;ratioP1;P1;durP2;ratioP2;P2;SDS_P1;SDS_P2;PMS_P1;PMS_P2;Temp;Humidity;BMP_temperature;BMP_pressure;BME280_temperature;BME280_humidity;BME280_pressure;Samples;Min_cycle;Max_cycle;Signal;HPM_P1;HPM_P2
2022/01/18 00:01:27;;;;;;;13.53;7.90;;;7.60;99.90;;;;;;5075424;28;20515;-63
2022/01/18 00:03:54;;;;;;;15.17;8.37;;;7.50;99.90;;;;;;5074699;28;20213;-63
2022/01/18 00:06:20;;;;;;;13.27;8.50;;;7.40;99.90;;;;;;5075004;28;20252;-63
2022/01/18 00:08:45;;;;;;;17.10;8.50;;;7.40;99.90;;;;;;5074709;28;20199;-63
2022/01/18 00:11:11;;;;;;;17.67;9.80;;;7.40;99.90;;;;;;5056985;28;20183;-64
2022/01/18 00:13:41;;;;;;;12.80;8.13;;;7.50;99.90;;;;;;5074462;28;20493;-64
2022/01/18 00:16:12;;;;;;;12.03;8.03;;;7.40;99.90;;;;;;5054797;28;20267;-64
2022/01/18 00:18:39;;;;;;;11.40;8.97;;;7.30;99.90;;;;;;5054722;28;20171;-62
2022/01/18 00:23:32;;;;;;;9.53;8.37;;;7.30;99.90;;;;;;5074421;28;20628;-64
2022/01/18 00:25:58;;;;;;;12.93;8.27;;;7.30;99.90;;;;;;5074400;28;20213;-63
2022/01/18 00:28:26;;;;;;;10.63;8.33;;;7.20;99.90;;;;;;5074463;28;20201;-64
2022/01/18 00:32:01;;;;;;;8.50;7.60;;;7.20;99.90;;;;;;5074391;28;20175;-64
2022/01/18 00:33:57;;;;;;;8.50;7.73;;;7.20;99.90;;;;;;5036265;28;20238;-64
2022/01/18 00:36:28;;;;;;;12.13;7.80;;;7.20;99.90;;;;;;5054491;28;20190;-64
2022/01/18 00:38:55;;;;;;;8.50;7.60;;;7.20;99.90;;;;;;5072636;28;20204;-64
2022/01/18 00:41:23;;;;;;;10.57;9.47;;;7.10;99.90;;;;;;5074398;28;20177;-64
2022/01/18 00:43:49;;;;;;;15.20;8.70;;;7.10;99.90;;;;;;5035799;28;20206;-64
2022/01/18 00:46:14;;;;;;;9.83;8.83;;;7.10;99.90;;;;;;5054260;28;20175;-65
2022/01/18 00:48:41;;;;;;;16.17;8.20;;;7.10;99.90;;;;;;5069497;28;20251;-65
2022/01/18 00:51:11;;;;;;;11.07;8.93;;;7.20;99.90;;;;;;5073992;28;20170;-64
2022/01/18 00:53:38;;;;;;;13.03;8.63;;;7.10;99.90;;;;;;5073649;28;20197;-65
2022/01/18 00:58:39;;;;;;;16.83;8.63;;;7.20;99.90;;;;;;5073861;28;20201;-64
2022/01/18 01:01:05;;;;;;;19.40;8.60;;;7.20;99.90;;;;;;5073664;28;20220;-64
2022/01/18 01:03:30;;;;;;;15.47;7.93;;;7.20;99.90;;;;;;5073547;28;20224;-65
2022/01/18 01:05:56;;;;;;;16.43;8.60;;;7.20;99.90;;;;;;5073479;28;20189;-64
2022/01/18 01:08:22;;;;;;;14.77;7.97;;;7.30;99.90;;;;;;5055887;28;20574;-64
2022/01/18 01:10:47;;;;;;;13.03;8.20;;;7.30;99.90;;;;;;5073477;28;20166;-64
2022/01/18 01:13:14;;;;;;;10.60;8.50;;;7.30;99.90;;;;;;5073452;28;20193;-64
2022/01/18 01:16:02;;;;;;;16.80;8.37;;;7.30;99.90;;;;;;5073767;28;20174;-64
2022/01/18 01:32:22;;;;;;;16.93;9.50;;;7.20;99.90;;;;;;5073256;28;20254;-63
2022/01/18 01:45:05;;;;;;;11.90;8.13;;;7.00;99.90;;;;;;5081437;28;20177;-64
2022/01/18 01:47:35;;;;;;;11.83;9.33;;;7.10;99.90;;;;;;5093300;28;20260;-64
2022/01/18 01:50:15;;;;;;;11.23;8.97;;;7.10;99.90;;;;;;5089980;28;20258;-64
2022/01/18 01:52:41;;;;;;;16.07;8.90;;;7.10;99.90;;;;;;5072854;28;20197;-64
2022/01/18 01:55:07;;;;;;;17.30;9.27;;;7.10;99.90;;;;;;5072551;28;20537;-64
2022/01/18 01:57:33;;;;;;;15.93;9.27;;;7.10;99.90;;;;;;5072968;28;20555;-64
2022/01/18 01:59:59;;;;;;;13.47;9.27;;;7.10;99.90;;;;;;5072710;28;20171;-64
2022/01/18 02:02:27;;;;;;;16.10;9.20;;;7.10;99.90;;;;;;5072549;28;20289;-63
2022/01/18 02:04:52;;;;;;;12.47;9.10;;;7.20;99.90;;;;;;5072843;28;20227;-63
2022/01/18 02:07:18;;;;;;;13.60;9.07;;;7.10;99.90;;;;;;5072664;28;20450;-64
2022/01/18 02:09:44;;;;;;;23.63;10.33;;;7.10;99.90;;;;;;5072070;28;20701;-64
2022/01/18 02:12:10;;;;;;;12.10;9.33;;;7.20;99.90;;;;;;5071894;28;20201;-63
2022/01/18 02:14:39;;;;;;;16.80;10.03;;;7.20;99.90;;;;;;5072630;28;20228;-64
2022/01/18 02:22:33;;;;;;;11.10;9.97;;;7.10;99.90;;;;;;5072335;28;20197;-63
2022/01/18 02:24:59;;;;;;;16.27;10.20;;;7.10;99.90;;;;;;5072151;28;20556;-64
2022/01/18 02:27:25;;;;;;;18.97;10.37;;;7.10;99.90;;;;;;5072581;28;20253;-64
2022/01/18 02:29:51;;;;;;;14.73;9.77;;;7.10;99.90;;;;;;5071961;28;20201;-63
2022/01/18 02:32:16;;;;;;;14.73;9.80;;;7.10;99.90;;;;;;5071888;28;20194;-64
2022/01/18 02:34:42;;;;;;;21.93;9.87;;;7.10;99.90;;;;;;5072109;28;20196;-64
2022/01/18 02:37:10;;;;;;;14.97;10.63;;;7.20;99.90;;;;;;5071949;28;20631;-65
2022/01/18 02:39:36;;;;;;;13.57;9.70;;;7.10;99.90;;;;;;5072080;28;20186;-64
2022/01/18 02:42:07;;;;;;;14.03;10.30;;;7.10;99.90;;;;;;5071788;28;20174;-64
2022/01/18 02:44:34;;;;;;;14.40;10.30;;;7.10;99.90;;;;;;5053885;28;20181;-64
2022/01/18 02:47:00;;;;;;;18.90;9.87;;;7.00;99.90;;;;;;5071547;28;20174;-63
2022/01/18 02:49:27;;;;;;;16.23;9.80;;;7.10;99.90;;;;;;5071820;28;20198;-64
2022/01/18 02:51:54;;;;;;;16.83;9.90;;;7.00;99.90;;;;;;5071638;28;20547;-64
2022/01/18 02:54:20;;;;;;;12.53;9.47;;;7.10;99.90;;;;;;5071795;28;20174;-64
2022/01/18 02:56:51;;;;;;;15.53;9.53;;;7.00;99.90;;;;;;5071302;28;20554;-64
2022/01/18 02:59:46;;;;;;;16.87;10.63;;;7.00;99.90;;;;;;5071779;28;20239;-64
2022/01/18 03:05:06;;;;;;;14.97;9.37;;;7.00;99.90;;;;;;5071832;28;20674;-64
2022/01/18 03:07:33;;;;;;;20.03;9.87;;;7.00;99.90;;;;;;5071611;28;20261;-64
2022/01/18 03:09:58;;;;;;;20.53;10.60;;;7.00;99.90;;;;;;5053668;28;20232;-63
2022/01/18 03:12:24;;;;;;;14.53;10.43;;;6.90;99.90;;;;;;5071147;28;20296;-65
2022/01/18 03:14:50;;;;;;;19.50;10.33;;;6.90;99.90;;;;;;5071438;28;20192;-64
2022/01/18 03:17:16;;;;;;;18.47;11.70;;;6.90;99.90;;;;;;5071527;28;20205;-64
2022/01/18 03:19:41;;;;;;;19.33;10.80;;;6.80;99.90;;;;;;5071323;28;20178;-64
2022/01/18 03:22:07;;;;;;;20.77;12.10;;;6.80;99.90;;;;;;5071378;28;20170;-64
2022/01/18 03:30:13;;;;;;;16.53;10.30;;;6.90;99.90;;;;;;5071604;28;20662;-64
2022/01/18 03:32:39;;;;;;;17.00;10.43;;;6.80;99.90;;;;;;5070877;28;20555;-63
2022/01/18 03:35:07;;;;;;;19.33;10.30;;;6.80;99.90;;;;;;5071297;28;20185;-64
2022/01/18 03:37:32;;;;;;;28.50;10.37;;;6.80;99.90;;;;;;5071310;28;20174;-64
2022/01/18 03:39:58;;;;;;;21.37;10.87;;;6.80;99.90;;;;;;5071590;28;20665;-64
2022/01/18 03:45:02;;;;;;;18.43;11.27;;;6.90;99.90;;;;;;5071378;28;20170;-64
2022/01/18 03:47:29;;;;;;;18.70;10.77;;;6.90;99.90;;;;;;5071255;28;20182;-63
2022/01/18 03:49:55;;;;;;;14.10;10.20;;;6.80;99.90;;;;;;5071331;28;20219;-63
2022/01/18 03:52:20;;;;;;;13.43;10.47;;;6.80;99.90;;;;;;5071103;28;20193;-63
2022/01/18 03:54:47;;;;;;;16.90;10.80;;;6.80;99.90;;;;;;5071397;28;20174;-63
2022/01/18 03:57:13;;;;;;;19.23;12.60;;;6.70;99.90;;;;;;5070907;28;20209;-64
2022/01/18 03:59:39;;;;;;;14.00;10.33;;;6.70;99.90;;;;;;5053355;28;20174;-64
2022/01/18 04:02:07;;;;;;;22.30;10.63;;;6.70;99.90;;;;;;5070523;28;20224;-64
2022/01/18 04:04:33;;;;;;;16.53;11.07;;;6.70;99.90;;;;;;5071886;28;20363;-64
2022/01/18 04:06:59;;;;;;;23.50;11.97;;;6.70;99.90;;;;;;5070704;28;20179;-64
2022/01/18 04:09:25;;;;;;;18.27;11.00;;;6.70;99.90;;;;;;5071059;28;20247;-64
2022/01/18 04:11:51;;;;;;;15.40;10.00;;;6.70;99.90;;;;;;5070853;28;20167;-63
2022/01/18 04:14:17;;;;;;;19.83;11.17;;;6.70;99.90;;;;;;5070543;28;20178;-64
2022/01/18 04:17:12;;;;;;;27.80;11.87;;;6.60;99.90;;;;;;5052272;28;20211;-64
2022/01/18 04:27:23;;;;;;;16.60;11.93;;;6.60;99.90;;;;;;5071050;28;20201;-64
2022/01/18 04:29:49;;;;;;;24.47;12.50;;;6.60;99.90;;;;;;5070643;28;20201;-64
2022/01/18 04:32:15;;;;;;;26.40;12.37;;;6.60;99.90;;;;;;5053843;28;20663;-64
2022/01/18 04:34:40;;;;;;;28.63;13.43;;;6.50;99.90;;;;;;5074395;28;20171;-64
2022/01/18 04:37:07;;;;;;;27.10;12.77;;;6.50;99.90;;;;;;5074277;28;20173;-65
2022/01/18 04:39:41;;;;;;;17.17;11.53;;;6.60;99.90;;;;;;5074370;28;20408;-64
2022/01/18 04:42:14;;;;;;;22.03;12.13;;;6.60;99.90;;;;;;5074055;28;20174;-64
2022/01/18 04:50:08;;;;;;;14.70;11.57;;;6.50;99.90;;;;;;5074044;28;20184;-64
2022/01/18 04:52:33;;;;;;;17.93;11.83;;;6.50;99.90;;;;;;5074060;28;20561;-63
2022/01/18 04:55:01;;;;;;;18.23;12.07;;;6.50;99.90;;;;;;5073915;28;20647;-64
2022/01/18 05:00:11;;;;;;;15.60;12.87;;;6.60;99.90;;;;;;5073963;28;20563;-64
2022/01/18 05:02:38;;;;;;;32.10;12.97;;;6.50;99.90;;;;;;5055462;28;20213;-64
2022/01/18 05:05:04;;;;;;;27.20;14.50;;;6.50;99.90;;;;;;5073918;28;20228;-64
2022/01/18 05:07:30;;;;;;;18.73;12.37;;;6.50;99.90;;;;;;5073812;28;20244;-64
2022/01/18 05:09:55;;;;;;;20.13;13.53;;;6.50;99.90;;;;;;5073931;28;20699;-64
2022/01/18 05:12:44;;;;;;;17.53;12.40;;;6.50;99.90;;;;;;5055325;28;20235;-64
2022/01/18 05:15:35;;;;;;;30.23;13.83;;;6.50;99.90;;;;;;5073480;28;20647;-63
2022/01/18 05:23:05;;;;;;;26.37;13.60;;;6.50;99.90;;;;;;5073040;28;20422;-64
2022/01/18 05:25:34;;;;;;;23.50;12.30;;;6.60;99.90;;;;;;5073761;28;20170;-64
2022/01/18 05:28:02;;;;;;;23.23;14.13;;;6.60;99.90;;;;;;5073139;28;20174;-64
2022/01/18 05:30:29;;;;;;;14.03;12.63;;;6.60;99.90;;;;;;5073436;28;20530;-64
2022/01/18 05:32:55;;;;;;;22.03;13.63;;;6.60;99.90;;;;;;5055474;28;20197;-64
2022/01/18 05:35:21;;;;;;;25.00;14.70;;;6.60;99.90;;;;;;5073787;28;20178;-63
2022/01/18 05:37:48;;;;;;;19.60;12.77;;;6.60;99.90;;;;;;5073537;28;20559;-64
2022/01/18 05:40:15;;;;;;;19.50;12.20;;;6.70;99.90;;;;;;5073233;28;20303;-64
2022/01/18 05:42:40;;;;;;;25.07;13.43;;;6.70;99.90;;;;;;5072557;28;20201;-64
2022/01/18 05:45:06;;;;;;;15.90;11.40;;;6.70;99.90;;;;;;5072142;28;20174;-64
2022/01/18 05:47:33;;;;;;;17.37;10.70;;;6.80;99.90;;;;;;5073152;28;20543;-64
2022/01/18 05:49:59;;;;;;;16.80;11.40;;;6.90;99.90;;;;;;5073001;28;20229;-64
2022/01/18 05:52:25;;;;;;;22.37;11.63;;;6.90;99.90;;;;;;5072608;28;20202;-64
2022/01/18 05:54:51;;;;;;;23.23;12.20;;;6.80;99.90;;;;;;5073371;28;20177;-64
2022/01/18 05:57:17;;;;;;;18.97;10.80;;;6.80;99.90;;;;;;5072519;28;20174;-64
2022/01/18 05:59:45;;;;;;;14.63;10.57;;;6.80;99.90;;;;;;5072989;28;20174;-65
2022/01/18 06:07:55;;;;;;;20.53;11.17;;;6.80;99.90;;;;;;5072797;28;20705;-64
2022/01/18 06:10:21;;;;;;;18.57;10.13;;;6.80;99.90;;;;;;5072654;28;20213;-64
2022/01/18 06:12:47;;;;;;;16.13;10.93;;;6.80;99.90;;;;;;5072128;28;20612;-64
2022/01/18 06:15:13;;;;;;;17.37;10.23;;;6.80;99.90;;;;;;5072559;28;20178;-64
2022/01/18 06:17:39;;;;;;;24.70;11.67;;;6.70;99.90;;;;;;5072457;28;20182;-64
2022/01/18 06:20:06;;;;;;;19.10;11.13;;;6.70;99.90;;;;;;5072628;28;20635;-65
2022/01/18 06:22:32;;;;;;;19.00;10.63;;;6.70;99.90;;;;;;5071843;28;20198;-64
2022/01/18 06:24:58;;;;;;;20.70;10.63;;;6.70;99.90;;;;;;5072368;28;20193;-64
2022/01/18 06:27:23;;;;;;;22.27;11.77;;;6.70;99.90;;;;;;5054146;28;20658;-64
2022/01/18 06:29:49;;;;;;;29.70;11.90;;;6.70;99.90;;;;;;5072476;28;20210;-64
2022/01/18 06:32:15;;;;;;;22.07;11.77;;;6.70;99.90;;;;;;5071699;28;20605;-64
2022/01/18 06:34:41;;;;;;;21.83;12.03;;;6.70;99.90;;;;;;5054442;28;20174;-64
2022/01/18 06:37:07;;;;;;;15.73;11.77;;;6.70;99.90;;;;;;5071723;28;20178;-64
2022/01/18 06:39:33;;;;;;;14.83;10.73;;;6.80;99.90;;;;;;5072228;28;20550;-64
2022/01/18 06:41:58;;;;;;;15.77;11.57;;;6.80;99.90;;;;;;5071578;28;20178;-64
2022/01/18 06:44:25;;;;;;;17.97;11.33;;;6.80;99.90;;;;;;5072082;28;20631;-64
2022/01/18 06:46:52;;;;;;;18.30;12.03;;;6.90;99.90;;;;;;5071875;28;20646;-64
2022/01/18 06:49:17;;;;;;;15.90;11.27;;;6.80;99.90;;;;;;5070720;28;20301;-64
2022/01/18 06:51:43;;;;;;;19.13;11.87;;;6.80;99.90;;;;;;5073113;28;20219;-63
2022/01/18 06:54:14;;;;;;;27.97;12.40;;;6.80;99.90;;;;;;5091821;28;20193;-64
2022/01/18 06:56:44;;;;;;;18.90;12.37;;;6.70;99.90;;;;;;5083229;28;20253;-64
2022/01/18 06:59:09;;;;;;;19.93;11.93;;;6.60;99.90;;;;;;5071562;28;20536;-63
2022/01/18 07:01:35;;;;;;;23.43;12.70;;;6.60;99.90;;;;;;5071429;28;20193;-64
2022/01/18 07:04:00;;;;;;;26.67;12.63;;;6.60;99.90;;;;;;5071095;28;20755;-64
2022/01/18 07:06:26;;;;;;;20.77;11.97;;;6.60;99.90;;;;;;5071824;28;20552;-64
2022/01/18 07:08:52;;;;;;;25.60;13.90;;;6.70;99.90;;;;;;5071536;28;20201;-64
2022/01/18 07:11:19;;;;;;;20.83;12.23;;;6.60;99.90;;;;;;5071426;28;20185;-63
2022/01/18 07:13:44;;;;;;;23.63;14.30;;;6.60;99.90;;;;;;5051891;28;20576;-64
2022/01/18 07:16:10;;;;;;;25.60;13.37;;;6.60;99.90;;;;;;5071763;28;20182;-63
2022/01/18 07:18:35;;;;;;;22.10;12.97;;;6.60;99.90;;;;;;5071065;28;20182;-63
2022/01/18 07:21:01;;;;;;;22.47;13.03;;;6.70;99.90;;;;;;5071246;28;20197;-64
2022/01/18 07:23:27;;;;;;;20.87;11.47;;;6.70;99.90;;;;;;5052596;28;20346;-64
2022/01/18 07:25:53;;;;;;;21.93;12.60;;;6.80;99.90;;;;;;5070574;28;20189;-63
2022/01/18 07:28:19;;;;;;;29.17;13.03;;;6.80;99.90;;;;;;5070766;28;20206;-65
2022/01/18 07:30:46;;;;;;;19.27;11.77;;;6.80;99.90;;;;;;5071474;28;20252;-64
2022/01/18 07:33:12;;;;;;;22.20;12.33;;;6.80;99.90;;;;;;5070066;28;20209;-64
2022/01/18 07:35:39;;;;;;;19.10;12.63;;;6.90;99.90;;;;;;5071318;28;20178;-63
2022/01/18 07:38:05;;;;;;;15.03;11.17;;;7.00;99.90;;;;;;5070931;28;20187;-63
2022/01/18 07:40:32;;;;;;;17.90;11.10;;;7.00;99.90;;;;;;5070011;28;20209;-65
2022/01/18 07:43:00;;;;;;;13.50;10.97;;;7.00;99.90;;;;;;5068670;28;20655;-62
2022/01/18 07:45:27;;;;;;;19.10;12.40;;;7.00;99.90;;;;;;5071132;28;20263;-64
2022/01/18 07:47:53;;;;;;;24.50;12.80;;;7.00;99.90;;;;;;5070881;28;20193;-64
2022/01/18 07:50:19;;;;;;;16.13;11.73;;;7.00;99.90;;;;;;5070894;28;20178;-63
2022/01/18 07:52:44;;;;;;;20.40;11.73;;;6.90;99.90;;;;;;5070598;28;20198;-64
2022/01/18 07:55:11;;;;;;;16.93;10.97;;;7.00;99.90;;;;;;5075609;28;20169;-65
2022/01/18 07:57:42;;;;;;;20.83;12.53;;;6.90;99.90;;;;;;5091423;28;20169;-64
2022/01/18 08:00:14;;;;;;;15.97;11.43;;;7.00;99.90;;;;;;5078022;28;20186;-64
2022/01/18 08:02:41;;;;;;;21.57;11.57;;;7.00;99.90;;;;;;5052384;28;20211;-64
2022/01/18 08:05:09;;;;;;;18.73;11.90;;;7.00;99.90;;;;;;5070831;28;20663;-64
2022/01/18 08:07:35;;;;;;;17.97;11.90;;;7.00;99.90;;;;;;5072842;28;20176;-65
2022/01/18 08:10:01;;;;;;;19.60;11.03;;;7.10;99.90;;;;;;5074577;28;20289;-64
2022/01/18 08:12:27;;;;;;;17.53;11.63;;;7.10;99.90;;;;;;5073297;28;20537;-64
2022/01/18 08:15:01;;;;;;;23.23;13.97;;;7.20;99.90;;;;;;5074101;28;20284;-65
2022/01/18 08:17:27;;;;;;;19.23;14.23;;;7.30;99.90;;;;;;5094332;28;20170;-64
2022/01/18 08:19:52;;;;;;;22.10;13.73;;;7.30;99.90;;;;;;5089219;28;20647;-65
2022/01/18 08:22:18;;;;;;;16.00;13.70;;;7.30;99.90;;;;;;5074132;28;20209;-64
2022/01/18 08:24:43;;;;;;;19.83;13.60;;;7.30;99.90;;;;;;5074597;28;20182;-64
2022/01/18 08:27:10;;;;;;;20.03;14.03;;;7.30;99.90;;;;;;5074267;28;20227;-65
2022/01/18 08:29:36;;;;;;;24.17;13.90;;;7.40;99.90;;;;;;5056983;28;20208;-64
2022/01/18 08:32:06;;;;;;;22.07;12.53;;;7.50;99.90;;;;;;5074575;28;20181;-63
2022/01/18 08:34:32;;;;;;;18.93;12.90;;;7.50;99.90;;;;;;5074527;28;20178;-65
2022/01/18 08:36:58;;;;;;;29.80;14.70;;;7.50;99.90;;;;;;5056146;28;20421;-65
2022/01/18 08:39:23;;;;;;;17.80;12.63;;;7.60;99.90;;;;;;5073969;28;20185;-65
2022/01/18 08:41:50;;;;;;;24.20;12.57;;;7.50;99.90;;;;;;5074575;28;20174;-64
2022/01/18 08:44:16;;;;;;;16.07;13.30;;;7.60;99.90;;;;;;5073556;28;20422;-64
2022/01/18 08:46:42;;;;;;;26.07;13.23;;;7.60;99.90;;;;;;5073937;28;20220;-65
2022/01/18 08:49:08;;;;;;;28.63;12.23;;;7.60;99.90;;;;;;5073129;28;20216;-64
2022/01/18 08:51:35;;;;;;;27.37;13.23;;;7.60;99.90;;;;;;5074597;28;20740;-64
2022/01/18 08:54:03;;;;;;;24.63;14.03;;;7.60;99.90;;;;;;5073263;28;20245;-64
2022/01/18 08:56:29;;;;;;;24.63;12.57;;;7.60;99.90;;;;;;5073462;28;20178;-65
2022/01/18 08:58:56;;;;;;;23.43;12.30;;;7.60;99.90;;;;;;5073971;28;20177;-64
2022/01/18 09:01:22;;;;;;;20.63;13.83;;;7.60;99.90;;;;;;5073477;28;20233;-65
2022/01/18 09:03:49;;;;;;;24.93;15.40;;;7.60;99.90;;;;;;5073360;28;20241;-64
2022/01/18 09:06:16;;;;;;;25.60;14.77;;;7.70;99.90;;;;;;5073707;28;20622;-64
2022/01/18 09:08:43;;;;;;;21.13;14.53;;;7.80;99.90;;;;;;5055702;28;20231;-64
2022/01/18 09:11:11;;;;;;;19.30;13.03;;;7.90;99.90;;;;;;5073362;28;20206;-64
2022/01/18 09:13:37;;;;;;;21.43;13.93;;;8.00;99.90;;;;;;5073046;28;20281;-64
2022/01/18 09:16:06;;;;;;;20.67;13.37;;;8.10;99.90;;;;;;5073520;28;20649;-65
2022/01/18 09:18:32;;;;;;;23.50;15.10;;;8.20;99.90;;;;;;5073262;28;20214;-64
2022/01/18 09:20:58;;;;;;;18.97;14.03;;;8.20;99.90;;;;;;5055882;28;20228;-64
2022/01/18 09:23:23;;;;;;;29.07;18.27;;;8.30;99.90;;;;;;5072601;28;20578;-64
2022/01/18 09:25:49;;;;;;;24.30;14.60;;;8.40;99.90;;;;;;5074901;28;20186;-64
2022/01/18 09:28:15;;;;;;;17.37;12.97;;;8.50;99.90;;;;;;5093484;28;20203;-65
2022/01/18 09:30:41;;;;;;;23.27;11.90;;;8.60;99.90;;;;;;5085058;28;20166;-64
2022/01/18 09:33:07;;;;;;;21.83;13.53;;;8.70;99.90;;;;;;5072785;28;20198;-64
2022/01/18 09:35:34;;;;;;;18.87;11.53;;;8.80;99.90;;;;;;5073218;28;20651;-64
2022/01/18 09:38:00;;;;;;;16.10;11.90;;;8.90;99.90;;;;;;5072888;28;20268;-64
2022/01/18 09:40:26;;;;;;;13.47;11.17;;;9.00;99.90;;;;;;5073203;28;20269;-64
2022/01/18 09:42:56;;;;;;;23.53;13.07;;;9.10;99.90;;;;;;5072570;28;20234;-63
2022/01/18 09:45:24;;;;;;;18.10;11.20;;;9.20;99.90;;;;;;5072561;28;20556;-65
2022/01/18 09:47:52;;;;;;;16.27;10.17;;;9.30;99.90;;;;;;5072792;28;20585;-65
2022/01/18 09:50:23;;;;;;;19.90;10.83;;;9.40;99.90;;;;;;5072879;28;20186;-65
2022/01/18 09:52:54;;;;;;;13.60;10.80;;;9.40;99.90;;;;;;5072429;28;20205;-64
2022/01/18 09:55:23;;;;;;;16.37;11.57;;;9.50;99.90;;;;;;5071764;28;20174;-64
2022/01/18 09:57:50;;;;;;;16.00;11.13;;;9.60;99.90;;;;;;5072727;28;20524;-63
2022/01/18 10:00:17;;;;;;;15.03;10.43;;;9.70;99.90;;;;;;5052951;28;20223;-64
2022/01/18 10:02:43;;;;;;;17.83;9.93;;;9.90;99.90;;;;;;5115268;22;21316;-65
2022/01/18 10:05:21;;;;;;;14.30;9.43;;;10.10;99.90;;;;;;5052808;28;20187;-65
2022/01/18 10:08:00;;;;;;;13.27;9.63;;;10.20;99.90;;;;;;5052309;28;20656;-65
2022/01/18 10:10:42;;;;;;;23.33;9.97;;;10.30;99.90;;;;;;5055546;28;20662;-66
2022/01/18 10:13:15;;;;;;;17.47;8.93;;;10.60;99.90;;;;;;5044406;28;20278;-65
2022/01/18 10:16:08;;;;;;;19.97;10.47;;;10.60;99.90;;;;;;5033312;28;20250;-66
2022/01/18 10:18:42;;;;;;;18.00;9.10;;;10.50;99.90;;;;;;5032662;28;20206;-67
2022/01/18 10:21:08;;;;;;;20.60;9.67;;;10.40;99.90;;;;;;5032438;28;20175;-67
2022/01/18 10:23:35;;;;;;;13.47;10.20;;;10.50;99.90;;;;;;5031829;28;20195;-67
2022/01/18 10:26:22;;;;;;;18.57;10.07;;;10.60;99.90;;;;;;5032440;28;20173;-67
2022/01/18 10:28:58;;;;;;;13.00;11.30;;;10.70;99.90;;;;;;5032593;28;20206;-67
2022/01/18 10:31:43;;;;;;;17.97;11.23;;;10.70;99.90;;;;;;5031438;28;20667;-67
2022/01/18 10:34:21;;;;;;;18.97;11.40;;;10.60;99.90;;;;;;5031914;28;20198;-67
2022/01/18 10:36:54;;;;;;;17.07;10.87;;;10.40;99.90;;;;;;5032002;28;20660;-67
2022/01/18 10:39:29;;;;;;;14.10;10.43;;;10.30;99.90;;;;;;5032063;28;20215;-67
2022/01/18 10:42:04;;;;;;;17.40;11.07;;;10.20;99.90;;;;;;5032535;28;20185;-67
2022/01/18 10:44:34;;;;;;;15.90;11.23;;;10.30;99.90;;;;;;5032307;28;20199;-66
2022/01/18 10:47:00;;;;;;;16.57;11.27;;;10.20;99.90;;;;;;5031813;28;20206;-65
2022/01/18 10:49:30;;;;;;;18.70;12.37;;;10.00;99.90;;;;;;5031982;28;20211;-67
2022/01/18 10:51:58;;;;;;;21.00;11.77;;;9.70;99.90;;;;;;5031752;28;20182;-66
2022/01/18 10:54:38;;;;;;;17.23;11.57;;;9.40;99.90;;;;;;5031755;28;20199;-67
2022/01/18 10:57:06;;;;;;;20.93;12.90;;;9.40;99.90;;;;;;5031700;28;20250;-67
2022/01/18 10:59:33;;;;;;;18.63;11.83;;;9.50;99.90;;;;;;5037949;28;20262;-66
2022/01/18 11:02:13;;;;;;;15.77;11.67;;;9.50;99.90;;;;;;5051604;28;20178;-66
2022/01/18 11:04:39;;;;;;;23.33;11.93;;;9.40;99.90;;;;;;5049560;28;20224;-67
2022/01/18 11:07:06;;;;;;;16.33;11.83;;;9.30;99.90;;;;;;5031963;28;20179;-67
2022/01/18 11:09:32;;;;;;;13.83;11.63;;;9.40;99.90;;;;;;5031317;28;20206;-67
2022/01/18 11:11:58;;;;;;;19.97;11.50;;;9.50;99.90;;;;;;5031779;28;20218;-67
2022/01/18 11:14:25;;;;;;;15.67;11.97;;;9.60;99.90;;;;;;5031638;28;20195;-66
2022/01/18 11:16:55;;;;;;;19.73;12.03;;;9.70;99.90;;;;;;5031965;28;20206;-66
2022/01/18 11:21:49;;;;;;;14.80;10.40;;;9.70;99.90;;;;;;5031668;28;20186;-67
2022/01/18 11:24:16;;;;;;;11.63;9.63;;;9.90;99.90;;;;;;5031090;28;20218;-67
2022/01/18 11:26:44;;;;;;;16.13;10.33;;;9.90;99.90;;;;;;5032055;28;20582;-67
2022/01/18 11:29:11;;;;;;;15.53;10.33;;;10.00;99.90;;;;;;5032194;28;20286;-67
2022/01/18 11:31:37;;;;;;;18.10;10.00;;;10.10;99.90;;;;;;5032063;28;20184;-67
2022/01/18 11:34:05;;;;;;;22.60;11.63;;;10.30;99.90;;;;;;5031194;28;20245;-65
2022/01/18 11:36:39;;;;;;;15.67;10.53;;;10.40;99.90;;;;;;5031881;28;20167;-67
2022/01/18 11:39:07;;;;;;;13.50;10.70;;;10.50;99.90;;;;;;5031579;28;20644;-67
2022/01/18 11:41:35;;;;;;;14.57;10.87;;;10.60;99.90;;;;;;5033152;28;20206;-68
2022/01/18 11:44:19;;;;;;;14.17;10.30;;;10.60;99.90;;;;;;5035179;28;20795;-67
2022/01/18 11:46:50;;;;;;;15.27;11.30;;;10.60;99.90;;;;;;5035699;28;20190;-67
2022/01/18 11:49:25;;;;;;;10.80;9.77;;;10.50;99.90;;;;;;5035266;28;20214;-66
2022/01/18 11:51:58;;;;;;;12.97;8.77;;;10.50;99.90;;;;;;5035266;28;20166;-67
2022/01/18 11:54:39;;;;;;;16.33;11.07;;;10.60;99.90;;;;;;5035291;28;20260;-66
2022/01/18 11:57:23;;;;;;;15.47;12.37;;;10.60;99.90;;;;;;5035296;28;20172;-66
2022/01/18 11:59:52;;;;;;;22.40;13.03;;;10.60;99.90;;;;;;5035483;28;20171;-67
2022/01/18 12:02:37;;;;;;;15.23;12.07;;;10.70;99.90;;;;;;5033146;28;20175;-67
2022/01/18 12:05:19;;;;;;;13.57;10.57;;;11.00;99.90;;;;;;5035196;28;20207;-66
2022/01/18 12:07:44;;;;;;;15.00;11.37;;;11.20;99.90;;;;;;5035117;28;20241;-66
2022/01/18 12:10:19;;;;;;;17.37;10.97;;;11.30;99.90;;;;;;5035132;28;20211;-66
2022/01/18 12:12:46;;;;;;;14.70;10.50;;;11.40;99.90;;;;;;5034622;28;20202;-66
2022/01/18 12:15:24;;;;;;;22.17;11.27;;;11.50;99.90;;;;;;5035198;28;20168;-67
2022/01/18 12:18:01;;;;;;;15.63;10.70;;;11.60;99.90;;;;;;5034710;28;20176;-68
2022/01/18 12:20:46;;;;;;;19.80;11.30;;;11.60;99.90;;;;;;5035030;28;20179;-67
2022/01/18 12:23:25;;;;;;;15.43;11.37;;;11.40;99.90;;;;;;5033099;28;20803;-67
2022/01/18 12:26:03;;;;;;;13.97;10.87;;;11.50;99.90;;;;;;5035174;28;20171;-65
2022/01/18 12:34:33;;;;;;;19.27;11.27;;;11.90;99.90;;;;;;5014446;28;20196;-66
2022/01/18 12:40:08;;;;;;;14.97;11.33;;;11.90;99.90;;;;;;5021395;28;20179;-67
2022/01/18 12:45:16;;;;;;;14.30;11.43;;;12.20;99.90;;;;;;5034874;28;20171;-66
2022/01/18 12:48:05;;;;;;;16.23;12.20;;;12.10;99.90;;;;;;5034378;28;20179;-66
2022/01/18 12:50:40;;;;;;;17.23;10.87;;;12.10;99.90;;;;;;5034222;28;20718;-67
2022/01/18 12:53:27;;;;;;;18.80;12.03;;;12.20;99.90;;;;;;5033466;28;20270;-67
2022/01/18 12:56:02;;;;;;;18.77;12.83;;;12.20;99.90;;;;;;5033751;28;20478;-67
2022/01/18 12:58:38;;;;;;;18.87;11.33;;;12.10;99.90;;;;;;5034344;28;20195;-67
2022/01/18 13:01:10;;;;;;;13.57;12.17;;;12.00;99.90;;;;;;5033961;28;20419;-66
2022/01/18 13:03:35;;;;;;;19.47;13.20;;;11.90;99.90;;;;;;5033737;28;20219;-67
2022/01/18 13:06:04;;;;;;;19.67;12.50;;;11.90;99.90;;;;;;5033688;28;20182;-66
2022/01/18 13:08:57;;;;;;;18.93;12.27;;;12.10;99.90;;;;;;5032907;28;20294;-67
2022/01/18 13:11:26;;;;;;;15.53;11.50;;;12.10;99.90;;;;;;5033628;28;20178;-67
2022/01/18 13:14:03;;;;;;;19.47;11.17;;;12.30;99.90;;;;;;5033322;28;20282;-67
2022/01/18 13:27:32;;;;;;;22.57;13.27;;;13.80;99.90;;;;;;5033411;28;20176;-67
2022/01/18 13:30:20;;;;;;;17.20;10.83;;;13.70;99.90;;;;;;5032212;28;20210;-67
2022/01/18 13:32:46;;;;;;;15.40;10.03;;;13.80;99.90;;;;;;5031505;28;20669;-67
2022/01/18 13:35:12;;;;;;;12.10;9.53;;;13.90;99.90;;;;;;5033311;28;20206;-67
2022/01/18 13:37:38;;;;;;;15.53;10.03;;;13.70;99.90;;;;;;5033157;28;20206;-67
2022/01/18 13:40:14;;;;;;;11.97;10.03;;;13.60;99.90;;;;;;5033409;28;20179;-66
2022/01/18 13:42:41;;;;;;;13.10;10.37;;;13.70;99.90;;;;;;5031548;28;20167;-67
2022/01/18 13:45:25;;;;;;;12.40;9.03;;;13.80;99.90;;;;;;5033130;28;20215;-67
2022/01/18 13:48:03;;;;;;;14.50;9.57;;;14.10;99.90;;;;;;5032803;28;20167;-67
2022/01/18 13:50:33;;;;;;;11.73;9.33;;;14.30;99.90;;;;;;5031352;28;20171;-67
2022/01/18 13:53:11;;;;;;;12.73;9.03;;;14.50;99.90;;;;;;5032579;28;20257;-67
2022/01/18 13:55:43;;;;;;;14.37;8.70;;;14.40;99.90;;;;;;5033335;28;20179;-68
2022/01/18 13:58:08;;;;;;;11.83;8.67;;;14.40;99.90;;;;;;5033015;28;20579;-66
2022/01/18 14:00:34;;;;;;;11.03;8.83;;;14.60;99.90;;;;;;5033230;28;20176;-67
2022/01/18 14:03:00;;;;;;;15.57;9.13;;;14.50;99.90;;;;;;5032227;28;20206;-67
2022/01/18 14:05:25;;;;;;;12.20;9.20;;;14.20;99.90;;;;;;5031625;28;20179;-67
2022/01/18 14:08:11;;;;;;;16.87;9.17;;;14.40;99.90;;;;;;5032546;28;20610;-67
2022/01/18 14:10:36;;;;;;;12.27;8.37;;;14.60;99.90;;;;;;5033257;28;20198;-67
2022/01/18 14:13:03;;;;;;;16.50;8.60;;;14.60;99.90;;;;;;5031600;28;20198;-67
2022/01/18 14:15:43;;;;;;;12.07;8.93;;;14.30;99.90;;;;;;5032465;28;20584;-66
2022/01/18 14:18:09;;;;;;;10.83;8.53;;;14.40;99.90;;;;;;5032276;28;20168;-66
2022/01/18 14:20:35;;;;;;;10.07;8.10;;;14.60;99.90;;;;;;5031124;28;20168;-67
2022/01/18 14:23:01;;;;;;;12.93;7.90;;;14.60;99.90;;;;;;5032027;28;20195;-67
2022/01/18 14:25:31;;;;;;;9.57;8.50;;;14.40;99.90;;;;;;5032047;28;20171;-67